Flight Track Log - Related Links

Times and Time Zones

All times are in EDT time to prevent confusion due to time zone crossing. See the AAY220 flight status page for this flight to view local times or setup timezone preferences in your user account.

Time Position Orientation Groundspeed Altitude Reporting Facility
EDT Latitude Longitude Course Direction KTS MPH feet Rate Location/Type
Fri 11:13:52 AM 48.7403 -122.5517 155° Southeast 209 241 2,400  Level Seattle Center
Fri 11:14:43 AM 48.6667 -122.5667 188° South 210 242 4,600 2,919 Climbing Vancouver Center
Fri 11:15:00 AM 48.0220 -121.9818 154° Southeast  Level Estimated
Fri 11:15:43 AM 48.5833 -122.5833 188° South 260 299 7,800  Level Vancouver Center
Fri 11:16:00 AM 47.9117 -121.9038 155° Southeast  Level Estimated
Fri 11:16:54 AM 48.5153 -122.6297 204° Southwest 284 327 10,700  Level Seattle Center
Fri 11:17:00 AM 47.8014 -121.8261 155° Southeast  Level Estimated
Fri 11:17:55 AM 48.4289 -122.6572 192° South 308 354 13,000  Level Seattle Center
Fri 11:18:00 AM 47.6909 -121.7487 155° Southeast  Level Estimated
Fri 11:18:56 AM 48.3322 -122.6406 173° South 349 402 15,300  Level Seattle Center
Fri 11:19:00 AM 47.5805 -121.6717 155° Southeast  Level Estimated
Fri 11:19:57 AM 48.2342 -122.5967 163° South 372 428 16,900  Level Seattle Center
Fri 11:20:58 AM 48.1281 -122.5581 166° South 388 447 18,700 1,721 Climbing Seattle Center
Fri 11:21:59 AM 48.0178 -122.5211 167° South 395 455 20,400 1,623 Climbing Seattle Center
Fri 11:23:00 AM 47.9019 -122.4772 166° South 412 474 22,000 1,426 Climbing Seattle Center
Fri 11:24:01 AM 47.7822 -122.4342 166° South 428 493 23,300 1,438 Climbing Seattle Center
Fri 11:25:01 AM 47.6561 -122.3900 167° South 469 540 24,900 1,636 Climbing Seattle Center
Fri 11:26:02 AM 47.5203 -122.3400 166° South 462 532 26,600 1,328 Climbing Seattle Center
Fri 11:27:03 AM 47.3944 -122.2958 167° South 466 536 27,600 1,082 Climbing Seattle Center
Fri 11:28:04 AM 47.2669 -122.2425 164° South 475 547 28,800 1,230 Climbing Seattle Center
Fri 11:29:05 AM 47.1372 -122.1919 165° South 481 554 30,100 1,082 Climbing Seattle Center
Fri 11:30:06 AM 47.0092 -122.1419 165° South 480 552 31,000 443 Climbing Seattle Center
Fri 11:31:07 AM 46.8758 -122.0914 165° South 495 570 31,000 545 Level Seattle Center
Fri 11:32:07 AM 46.7464 -122.0383 164° South 487 560 32,100 992 Climbing Seattle Center
Fri 11:33:08 AM 46.6181 -121.9883 165° South 479 551 33,000 443 Climbing Seattle Center
Fri 11:34:09 AM 46.4908 -121.9394 165° South 474 545 33,000  Level Seattle Center
Fri 11:35:10 AM 46.3644 -121.8917 165° South 470 541 33,000  Level Seattle Center
Fri 11:36:11 AM 46.2375 -121.8422 165° South 471 542 33,000  Level Seattle Center
Fri 11:37:12 AM 46.0994 -121.7894 165° South 474 545 33,000  Level Seattle Center
Fri 11:38:13 AM 45.9711 -121.7428 166° South 477 549 33,000  Level Seattle Center
Fri 11:39:13 AM 45.8453 -121.6931 165° South 473 544 33,000  Level Seattle Center
Fri 11:40:14 AM 45.7175 -121.6453 165° South 474 545 33,000  Level Seattle Center
Fri 11:41:15 AM 45.5897 -121.5989 166° South 475 547 33,000  Level Seattle Center
Fri 11:42:16 AM 45.4614 -121.5511 165° South 477 549 33,000  Level Seattle Center
Fri 11:43:17 AM 45.3072 -121.4933 165° South 479 551 33,000  Level Seattle Center
Fri 11:44:18 AM 45.1789 -121.4464 166° South 479 551 33,000  Level Seattle Center
Fri 11:45:18 AM 45.0514 -121.3992 165° South 478 550 33,000  Level Seattle Center
Fri 11:46:19 AM 44.9228 -121.3528 166° South 480 552 33,000  Level Seattle Center
Fri 11:47:20 AM 44.7933 -121.3061 166° South 482 555 33,000  Level Seattle Center
Fri 11:48:21 AM 44.6647 -121.2586 165° South 481 554 33,000  Level Seattle Center
Fri 11:49:22 AM 44.5383 -121.2147 166° South 481 554 33,000  Level Seattle Center
Fri 11:50:23 AM 44.4083 -121.1672 165° South 481 554 33,000  Level Seattle Center
Fri 11:51:24 AM 44.2778 -121.1200 165° South 481 554 33,000  Level Seattle Center
Fri 11:52:25 AM 44.1461 -121.0750 166° South 486 559 33,000  Level Seattle Center
Fri 11:53:25 AM 44.0172 -121.0292 166° South 483 556 33,000  Level Seattle Center
Fri 11:54:26 AM 43.8619 -120.9744 166° South 482 555 33,000  Level Seattle Center
Fri 11:55:27 AM 43.7322 -120.9303 166° South 483 556 33,000  Level Seattle Center
Fri 11:56:28 AM 43.6033 -120.8833 165° South 481 554 33,000  Level Seattle Center
Fri 11:57:29 AM 43.4853 -120.8453 167° South 485 558 33,000  Level Seattle Center
Fri 11:58:30 AM 43.3539 -120.8011 166° South 486 559 33,000  Level Seattle Center
Fri 11:59:31 AM 43.2217 -120.7544 166° South 488 562 33,000  Level Seattle Center
Fri 12:00:32 PM 43.0894 -120.7092 166° South 488 562 33,000  Level Seattle Center
Fri 12:01:33 PM 42.9322 -120.6567 166° South 485 558 33,000  Level Seattle Center
Fri 12:02:33 PM 42.8000 -120.6114 166° South 488 562 33,000  Level Seattle Center
Fri 12:03:34 PM 42.6708 -120.5694 167° South 480 552 33,000  Level Seattle Center
Fri 12:04:35 PM 42.5386 -120.5247 166° South 488 562 33,000  Level Seattle Center
Fri 12:05:36 PM 42.4069 -120.4819 167° South 486 559 33,000  Level Seattle Center
Fri 12:06:37 PM 42.2761 -120.4444 168° South 481 554 33,000  Level Seattle Center
Fri 12:07:38 PM 42.1442 -120.4042 167° South 484 557 33,000  Level Seattle Center
Fri 12:08:39 PM 42.0136 -120.3647 167° South 482 555 33,000  Level Seattle Center
Fri 12:09:40 PM 41.8808 -120.3253 168° South 485 558 33,000  Level Seattle Center
Fri 12:10:41 PM 41.7489 -120.2886 168° South 485 558 33,000  Level Seattle Center
Fri 12:11:42 PM 41.6164 -120.2481 167° South 487 560 33,000  Level Seattle Center
Fri 12:12:43 PM 41.4844 -120.2108 168° South 484 557 33,000  Level Seattle Center
Fri 12:13:44 PM 41.3536 -120.1719 167° South 483 556 33,000  Level Seattle Center
Fri 12:14:45 PM 41.2211 -120.1331 168° South 486 559 33,000  Level Seattle Center
Fri 12:15:46 PM 41.0894 -120.0958 168° South 485 558 33,000  Level Seattle Center
Fri 12:16:47 PM 40.9314 -120.0511 168° South 484 557 33,000  Level Seattle Center
Fri 12:17:48 PM 40.7989 -120.0125 168° South 487 560 33,000  Level Seattle Center
Fri 12:18:49 PM 40.6681 -119.9744 168° South 485 558 33,000  Level Seattle Center
Fri 12:19:45 PM 40.5394 -119.9383 168° South 481 554 33,000  Level Oakland Center
Fri 12:20:47 PM 40.4089 -119.9017 168° South 481 554 33,000  Level Oakland Center
Fri 12:21:48 PM 40.2792 -119.8656 168° South 477 549 33,000  Level Oakland Center
Fri 12:22:49 PM 40.1500 -119.8294 168° South 478 550 33,000  Level Oakland Center
Fri 12:23:51 PM 40.0206 -119.7922 168° South 479 551 33,000  Level Oakland Center
Fri 12:24:52 PM 39.8903 -119.7561 168° South 479 551 33,000  Level Oakland Center
Fri 12:25:54 PM 39.7583 -119.7206 168° South 483 556 33,000  Level Oakland Center
Fri 12:26:55 PM 39.6297 -119.6844 168° South 478 550 33,000 49 Level Oakland Center
Fri 12:27:57 PM 39.4892 -119.6053 157° South 477 549 33,100  Climbing Oakland Center
Fri 12:28:58 PM 39.3956 -119.4844 135° Southeast 478 550 33,000 -49 Descending Oakland Center
Fri 12:30:00 PM 39.3017 -119.3656 136° Southeast 476 548 33,000  Level Oakland Center
Fri 12:31:01 PM 39.2067 -119.2467 136° Southeast 479 551 33,000  Level Oakland Center
Fri 12:32:03 PM 39.1114 -119.1272 136° Southeast 481 554 33,000  Level Oakland Center
Fri 12:33:04 PM 39.0158 -119.0067 136° Southeast 484 557 33,000  Level Oakland Center
Fri 12:34:06 PM 38.9003 -118.8639 136° Southeast 485 558 33,000  Level Oakland Center
Fri 12:35:07 PM 38.8036 -118.7442 136° Southeast 487 560 33,000  Level Oakland Center
Fri 12:36:09 PM 38.7075 -118.6247 136° Southeast 484 557 33,000  Level Oakland Center
Fri 12:37:10 PM 38.6100 -118.5053 136° Southeast 486 559 33,000  Level Oakland Center
Fri 12:38:12 PM 38.5122 -118.3858 136° Southeast 487 560 33,000  Level Oakland Center
Fri 12:39:13 PM 38.4133 -118.2672 137° Southeast 489 563 33,000  Level Oakland Center
Fri 12:40:15 PM 38.3178 -118.1475 135° Southeast 485 558 33,000  Level Oakland Center
Fri 12:41:16 PM 38.2117 -118.0200 137° Southeast 486 559 33,000  Level Oakland Center
Fri 12:42:18 PM 38.1139 -117.9022 137° Southeast 485 558 33,000  Level Oakland Center
Fri 12:43:19 PM 38.0156 -117.7847 137° Southeast 489 563 33,000  Level Oakland Center
Fri 12:44:21 PM 37.8842 -117.6689 145° Southeast 489 563 33,000  Level Oakland Center
Fri 12:45:22 PM 37.7731 -117.5711 145° Southeast 489 563 33,000  Level Oakland Center
Fri 12:46:24 PM 37.6628 -117.4764 146° Southeast 483 556 33,000  Level Oakland Center
Fri 12:47:18 PM 37.5692 -117.4206 155° Southeast 485 558 33,000  Level Los Angeles Center
Fri 12:48:20 PM 37.4394 -117.3097 146° Southeast 472 543 33,000  Level Los Angeles Center
Fri 12:49:28 PM 37.3350 -117.2075 142° Southeast 474 545 33,000  Level Oakland Center
Fri 12:50:30 PM 37.2247 -117.1094 145° Southeast 486 559 33,000  Level Oakland Center
Fri 12:51:26 PM 37.1136 -117.0139 146° Southeast 485 558 33,000 -203 Level Los Angeles Center
Fri 12:52:28 PM 37.0025 -116.9183 146° Southeast 485 558 32,600 -480 Descending Los Angeles Center
Fri 12:53:31 PM 36.8919 -116.8250 146° Southeast 481 554 32,000 -912 Descending Los Angeles Center
Fri 12:54:33 PM 36.7667 -116.7011 142° Southeast 483 556 30,700 -1,548 Descending Los Angeles Center
Fri 12:55:35 PM 36.6814 -116.5783 131° Southeast 470 541 28,800 -1,776 Descending Los Angeles Center
Fri 12:56:38 PM 36.6000 -116.4597 131° Southeast 456 525 27,000 -1,645 Descending Los Angeles Center
Fri 12:57:39 PM 36.5217 -116.3511 132° Southeast 438 504 25,400 -1,478 Descending Los Angeles Center
Fri 12:58:56 PM 36.4194 -116.2075 131° Southeast 414 476 23,600 -1,400 Descending Los Angeles Center
Fri 12:59:09 PM 36.4042 -116.1856 131° Southeast 410 472 23,300 -1,404 Descending Los Angeles Center
Fri 12:59:43 PM 36.3619 -116.1236 130° Southeast 396 456 22,500 -1,377 Descending Los Angeles Center
Fri 01:00:10 PM 36.3283 -116.0792 133° Southeast 389 448 21,900 -1,258 Descending Los Angeles Center
Fri 01:00:45 PM 36.2917 -116.0275 131° Southeast 381 438 21,200 -1,672 Descending Los Angeles Center
Fri 01:01:11 PM 36.2608 -115.9836 131° Southeast 379 436 20,200 -3,048 Descending Los Angeles Center
Fri 01:01:48 PM 36.2161 -115.9217 132° Southeast 384 442 18,000 -3,639 Descending Los Angeles Center
Fri 01:02:12 PM 36.1914 -115.8781 125° Southeast 398 458 16,500 -2,419 Descending Los Angeles Center
Fri 01:02:50 PM 36.1681 -115.8008 111° Southeast 388 447 15,500 -1,279 Descending Los Angeles Center
Fri 01:03:13 PM 36.1550 -115.7569 110° East 368 423 15,200 -677 Descending Los Angeles Center
Fri 01:03:52 PM 36.1333 -115.6842 110° East 330 380 14,800 -590 Descending Los Angeles Center
Fri 01:04:14 PM 36.1211 -115.6481 113° Southeast 310 357 14,600 -968 Descending Los Angeles Center
Fri 01:04:54 PM 36.1011 -115.5933 114° Southeast 293 337 13,800 -1,279 Descending Los Angeles Center
Fri 01:05:15 PM 36.0892 -115.5600 114° Southeast 281 323 13,300 -1,258 Descending Los Angeles Center
Fri 01:05:56 PM 36.0739 -115.5092 110° East 273 314 12,500 -1,180 Descending Los Angeles Center
Fri 01:06:16 PM 36.0653 -115.4775 109° East 265 305 12,100 -1,161 Descending Los Angeles Center
Fri 01:06:58 PM 36.0486 -115.4289 113° Southeast 259 298 11,300 -1,475 Descending Los Angeles Center
Fri 01:07:17 PM 36.0364 -115.3939 113° Southeast 250 288 10,600 -1,452 Descending Los Angeles Center
Fri 01:08:00 PM 36.0286 -115.3503 102° East 249 287 9,800 -1,475 Descending Los Angeles Center
Fri 01:08:18 PM 36.0272 -115.3119 93° East 251 289 9,100 -774 Descending Los Angeles Center
Fri 01:09:02 PM 36.0211 -115.2494 97° East 247 284 9,000 -290 Descending Los Angeles Center
Fri 01:09:20 PM 36.0203 -115.2292 93° East 245 282 8,800 -571 Descending Los Angeles Center
Fri 01:10:05 PM 36.0142 -115.1658 97° East 246 283 8,400 -590 Descending Los Angeles Center
Fri 01:10:21 PM 36.0144 -115.1433 89° East 245 282 8,200 -387 Descending Los Angeles Center
Fri 01:11:07 PM 36.0103 -115.0847 95° East 241 277 8,000 -400 Descending Los Angeles Center
Fri 01:11:21 PM 36.0103 -115.0650 90° East 198 228 7,800 -968 Descending Los Angeles Center
Fri 01:12:09 PM 36.0050 -115.0178 98° East 208 239 7,000 -1,180 Descending Los Angeles Center
Fri 01:12:22 PM 36.0044 -114.9978 92° East 198 228 6,600 -968 Descending Los Angeles Center
Fri 01:13:11 PM 36.0019 -114.9514 94° East 200 230 6,000 -590 Descending Los Angeles Center
Fri 01:13:23 PM 36.0008 -114.9325 94° East 190 219 6,000 -97 Level Los Angeles Center
Fri 01:14:13 PM 35.9975 -114.8733 94° East 194 223 5,900 -197 Descending Los Angeles Center
Fri 01:14:24 PM 36.0033 -114.8650 49° Northeast 193 222 5,800 -677 Descending Los Angeles Center
Fri 01:15:15 PM 36.0394 -114.8589 North 195 224 5,200 -787 Descending Los Angeles Center
Fri 01:15:25 PM 36.0503 -114.8628 344° North 182 209 5,000 -1,161 Descending Los Angeles Center
Fri 01:16:17 PM 36.0686 -114.9017 300° West 183 211 4,000 -1,082 Descending Los Angeles Center
Fri 01:16:26 PM 36.0708 -114.9169 280° West 177 204 3,900 -171 Descending Los Angeles Center
Fri 01:17:27 PM 36.0733 -114.9775 273° West 177 204 3,800 -103 Descending Los Angeles Center
Fri 01:18:22 PM 36.0742 -115.0222 271° West 175 201 3,700 -295 Descending Los Angeles Center
Fri 01:18:28 PM 36.0733 -115.0361 266° West 170 196 3,500 -871 Descending Los Angeles Center
Fri 01:19:24 PM 36.0725 -115.0747 268° West 164 189 2,800 -885 Descending Los Angeles Center
Fri 01:19:29 PM 36.0739 -115.0892 277° West 150 173 2,600 -774 Descending Los Angeles Center
Fri 01:20:26 PM 36.0733 -115.1339 269° West 150 173 2,000 -632 Descending Los Angeles Center

Login

Don't have an account? Register now (free) for customized features, flight alerts, and more!